createdAt,value
2019-05-14T00:00:52.216Z,1030.09
2019-05-14T00:01:51.445Z,1030.09
2019-05-14T00:02:52.053Z,1030.07
2019-05-14T00:03:51.664Z,1030.07
2019-05-14T00:04:51.210Z,1030.06
2019-05-14T00:05:51.691Z,1030.06
2019-05-14T00:06:51.951Z,1030.07
2019-05-14T00:07:52.122Z,1030.07
2019-05-14T00:08:52.144Z,1030.05
2019-05-14T00:09:51.900Z,1030.01
2019-05-14T00:10:52.056Z,1030.03
2019-05-14T00:11:51.273Z,1030.00
2019-05-14T00:12:51.266Z,1030.03
2019-05-14T00:13:52.087Z,1030.01
2019-05-14T00:14:51.631Z,1030.01
2019-05-14T00:15:52.187Z,1030.01
2019-05-14T00:16:51.339Z,1030.04
2019-05-14T00:17:52.215Z,1030.08
2019-05-14T00:18:51.148Z,1030.07
2019-05-14T00:20:05.911Z,1030.05
2019-05-14T00:20:51.333Z,1030.05
2019-05-14T00:21:51.449Z,1030.06
2019-05-14T00:22:52.032Z,1030.03
2019-05-14T00:23:51.425Z,1030.05
2019-05-14T00:24:51.991Z,1030.06
2019-05-14T00:25:52.088Z,1030.04
2019-05-14T00:26:51.688Z,1030.00
2019-05-14T00:27:51.915Z,1029.99
2019-05-14T00:28:51.245Z,1030.01
2019-05-14T00:29:51.839Z,1030.01
2019-05-14T00:30:52.168Z,1029.97
2019-05-14T00:31:51.664Z,1029.97
2019-05-14T00:32:52.058Z,1030.02
2019-05-14T00:33:51.245Z,1029.97
2019-05-14T00:34:51.527Z,1029.97
2019-05-14T00:35:51.516Z,1029.99
2019-05-14T00:36:52.230Z,1029.97
2019-05-14T00:37:52.077Z,1030.01
2019-05-14T00:38:51.248Z,1029.98
2019-05-14T00:39:52.135Z,1030.01
2019-05-14T00:40:51.331Z,1030.00
2019-05-14T00:41:51.264Z,1029.98
2019-05-14T00:42:49.977Z,1029.98
2019-05-14T00:43:51.344Z,1029.99
2019-05-14T00:44:57.408Z,1029.99
2019-05-14T00:45:51.225Z,1029.97
2019-05-14T00:46:51.611Z,1029.96
2019-05-14T00:47:52.342Z,1029.96
2019-05-14T00:48:51.539Z,1029.96
2019-05-14T00:49:51.785Z,1029.96
2019-05-14T00:50:51.666Z,1029.96
2019-05-14T00:51:51.764Z,1029.95
2019-05-14T00:52:51.714Z,1029.92
2019-05-14T00:53:51.594Z,1029.91
2019-05-14T00:54:51.984Z,1029.89
2019-05-14T00:55:51.669Z,1029.89
2019-05-14T00:56:51.975Z,1029.94
2019-05-14T00:57:51.986Z,1029.90
2019-05-14T00:58:51.956Z,1029.91
2019-05-14T00:59:51.941Z,1029.91
2019-05-14T01:00:52.238Z,1029.90
2019-05-14T01:01:51.618Z,1029.92
2019-05-14T01:02:51.759Z,1029.90
2019-05-14T01:03:51.923Z,1029.86
2019-05-14T01:04:51.662Z,1029.88
2019-05-14T01:05:51.944Z,1029.87
2019-05-14T01:06:51.172Z,1029.84
2019-05-14T01:07:51.398Z,1029.89
2019-05-14T01:08:51.689Z,1029.84
2019-05-14T01:09:52.102Z,1029.85
2019-05-14T01:10:51.230Z,1029.88
2019-05-14T01:11:51.294Z,1029.87
2019-05-14T01:12:51.888Z,1029.81
2019-05-14T01:13:52.038Z,1029.89
2019-05-14T01:14:52.837Z,1029.85
2019-05-14T01:15:52.177Z,1029.84
2019-05-14T01:16:51.385Z,1029.81
2019-05-14T01:17:51.576Z,1029.82
2019-05-14T01:18:51.364Z,1029.85
2019-05-14T01:19:51.290Z,1029.82
2019-05-14T01:20:51.680Z,1029.84
2019-05-14T01:21:51.021Z,1029.83
2019-05-14T01:22:51.520Z,1029.85
2019-05-14T01:23:51.356Z,1029.81
2019-05-14T01:24:49.505Z,1029.84
2019-05-14T01:25:51.457Z,1029.83
2019-05-14T01:26:49.483Z,1029.85
2019-05-14T01:27:51.625Z,1029.83
2019-05-14T01:28:51.405Z,1029.86
2019-05-14T01:29:51.439Z,1029.82
2019-05-14T01:30:51.619Z,1029.90
2019-05-14T01:31:49.434Z,1029.86
2019-05-14T01:32:51.147Z,1029.86
2019-05-14T01:33:51.405Z,1029.83
2019-05-14T01:34:49.394Z,1029.85
2019-05-14T01:35:51.500Z,1029.85
2019-05-14T01:36:49.371Z,1029.87
2019-05-14T01:37:49.391Z,1029.83
2019-05-14T01:38:51.275Z,1029.81
2019-05-14T01:39:51.758Z,1029.84
2019-05-14T01:40:49.325Z,1029.80
2019-05-14T01:41:51.519Z,1029.79
2019-05-14T01:42:52.053Z,1029.76
2019-05-14T01:43:51.284Z,1029.76
2019-05-14T01:44:51.682Z,1029.80
2019-05-14T01:45:49.269Z,1029.80
2019-05-14T01:46:51.131Z,1029.77
2019-05-14T01:47:51.902Z,1029.75
2019-05-14T01:48:49.235Z,1029.78
2019-05-14T01:49:51.311Z,1029.80
2019-05-14T01:50:49.213Z,1029.80
2019-05-14T01:51:51.169Z,1029.78
2019-05-14T01:52:49.191Z,1029.79
2019-05-14T01:53:49.179Z,1029.80
2019-05-14T01:54:51.322Z,1029.78
2019-05-14T01:55:49.188Z,1029.81
2019-05-14T01:56:51.326Z,1029.81
2019-05-14T01:57:49.135Z,1029.82
2019-05-14T01:58:49.125Z,1029.80
2019-05-14T01:59:51.467Z,1029.78
2019-05-14T02:00:49.101Z,1029.82
2019-05-14T02:01:51.516Z,1029.77
2019-05-14T02:02:49.078Z,1029.82
2019-05-14T02:03:49.069Z,1029.80
2019-05-14T02:04:51.148Z,1029.84
2019-05-14T02:05:49.043Z,1029.83
2019-05-14T02:06:51.357Z,1029.80
2019-05-14T02:07:49.031Z,1029.80
2019-05-14T02:08:51.284Z,1029.77
2019-05-14T02:09:48.999Z,1029.79
2019-05-14T02:10:48.987Z,1029.79
2019-05-14T02:11:48.978Z,1029.81
2019-05-14T02:12:51.348Z,1029.83
2019-05-14T02:13:48.986Z,1029.83
2019-05-14T02:14:51.099Z,1029.84
2019-05-14T02:15:48.932Z,1029.83
2019-05-14T02:16:51.086Z,1029.84
2019-05-14T02:17:48.909Z,1029.85
2019-05-14T02:18:48.898Z,1029.83
2019-05-14T02:19:51.291Z,1029.83
2019-05-14T02:20:48.875Z,1029.82
2019-05-14T02:21:48.863Z,1029.82
2019-05-14T02:22:48.854Z,1029.82
2019-05-14T02:23:48.842Z,1029.83
2019-05-14T02:24:48.830Z,1029.83
2019-05-14T02:25:48.828Z,1029.82
2019-05-14T02:26:51.256Z,1029.81
2019-05-14T02:27:48.797Z,1029.84
2019-05-14T02:28:48.785Z,1029.81
2019-05-14T02:29:48.776Z,1029.78
2019-05-14T02:30:57.704Z,1029.86
2019-05-14T02:31:50.348Z,1029.81
2019-05-14T02:32:49.764Z,1029.79
2019-05-14T02:33:50.296Z,1029.76
2019-05-14T02:34:50.021Z,1029.76
2019-05-14T02:35:49.495Z,1029.77
2019-05-14T02:36:49.639Z,1029.74
2019-05-14T02:37:50.457Z,1029.78
2019-05-14T02:38:49.542Z,1029.72
2019-05-14T02:39:50.235Z,1029.73
2019-05-14T02:40:49.558Z,1029.70
2019-05-14T02:41:49.971Z,1029.73
2019-05-14T02:42:49.751Z,1029.73
2019-05-14T02:43:50.281Z,1029.73
2019-05-14T02:44:48.936Z,1029.66
2019-05-14T02:46:01.965Z,1029.71
2019-05-14T02:46:50.518Z,1029.65
2019-05-14T02:47:50.361Z,1029.73
2019-05-14T02:48:49.293Z,1029.71
2019-05-14T02:49:50.220Z,1029.75
2019-05-14T02:50:49.420Z,1029.73
2019-05-14T02:51:50.335Z,1029.73
2019-05-14T02:52:49.599Z,1029.69
2019-05-14T02:53:49.750Z,1029.64
2019-05-14T02:54:49.626Z,1029.66
2019-05-14T02:55:49.791Z,1029.65
2019-05-14T02:56:49.516Z,1029.65
2019-05-14T02:57:50.174Z,1029.65
2019-05-14T02:58:49.903Z,1029.63
2019-05-14T02:59:50.289Z,1029.69
2019-05-14T03:00:49.213Z,1029.72
2019-05-14T03:01:50.326Z,1029.73
2019-05-14T03:02:49.418Z,1029.79
2019-05-14T03:03:49.576Z,1029.79
2019-05-14T03:04:49.944Z,1029.76
2019-05-14T03:05:49.644Z,1029.75
2019-05-14T03:06:49.815Z,1029.77
2019-05-14T03:07:50.031Z,1029.78
2019-05-14T03:08:49.402Z,1029.80
2019-05-14T03:09:50.157Z,1029.80
2019-05-14T03:10:50.223Z,1029.81
2019-05-14T03:11:48.678Z,1029.79
2019-05-14T03:12:50.019Z,1029.78
2019-05-14T03:13:49.530Z,1029.81
2019-05-14T03:14:49.922Z,1029.75
2019-05-14T03:15:49.782Z,1029.84
2019-05-14T03:16:49.518Z,1029.82
2019-05-14T03:17:49.376Z,1029.83
2019-05-14T03:18:50.153Z,1029.79
2019-05-14T03:19:49.569Z,1029.79
2019-05-14T03:20:50.230Z,1029.79
2019-05-14T03:21:50.079Z,1029.84
2019-05-14T03:23:02.643Z,1029.82
2019-05-14T03:23:49.826Z,1029.86
2019-05-14T03:24:50.282Z,1029.86
2019-05-14T03:25:49.271Z,1029.84
2019-05-14T03:26:49.955Z,1029.86
2019-05-14T03:27:49.781Z,1029.85
2019-05-14T03:28:49.751Z,1029.85
2019-05-14T03:29:49.961Z,1029.86
2019-05-14T03:30:52.600Z,1029.88
2019-05-14T03:31:52.837Z,1029.85
2019-05-14T03:32:52.936Z,1029.84
2019-05-14T03:33:52.587Z,1029.83
2019-05-14T03:34:53.309Z,1029.86
2019-05-14T03:35:57.478Z,1029.85
2019-05-14T03:36:52.647Z,1029.78
2019-05-14T03:37:49.678Z,1029.84
2019-05-14T03:38:50.210Z,1029.85
2019-05-14T03:39:49.429Z,1029.84
2019-05-14T03:40:49.455Z,1029.86
2019-05-14T03:41:49.977Z,1029.86
2019-05-14T03:42:49.037Z,1029.85
2019-05-14T03:43:49.379Z,1029.80
2019-05-14T03:44:49.087Z,1029.85
2019-05-14T03:45:49.521Z,1029.84
2019-05-14T03:46:54.708Z,1029.83
2019-05-14T03:47:50.404Z,1029.82
2019-05-14T03:48:49.350Z,1029.86
2019-05-14T03:49:49.889Z,1029.79
2019-05-14T03:50:49.499Z,1029.82
2019-05-14T03:51:49.798Z,1029.80
2019-05-14T03:52:49.853Z,1029.77
2019-05-14T03:53:56.975Z,1029.82
2019-05-14T03:54:49.704Z,1029.80
2019-05-14T03:55:50.384Z,1029.76
2019-05-14T03:56:49.704Z,1029.76
2019-05-14T03:57:49.967Z,1029.73
2019-05-14T03:58:49.473Z,1029.74
2019-05-14T03:59:49.907Z,1029.79
2019-05-14T04:00:50.033Z,1029.74
2019-05-14T04:01:51.076Z,1029.77
2019-05-14T04:02:49.009Z,1029.76
2019-05-14T04:03:50.346Z,1029.82
2019-05-14T04:04:50.229Z,1029.77
2019-05-14T04:05:49.305Z,1029.77
2019-05-14T04:06:49.771Z,1029.75
2019-05-14T04:07:50.342Z,1029.76
2019-05-14T04:08:49.712Z,1029.75
2019-05-14T04:09:49.459Z,1029.74
2019-05-14T04:10:53.439Z,1029.74
2019-05-14T04:11:50.216Z,1029.78
2019-05-14T04:12:49.114Z,1029.80
2019-05-14T04:13:49.634Z,1029.77
2019-05-14T04:14:50.290Z,1029.77
2019-05-14T04:15:49.757Z,1029.79
2019-05-14T04:17:03.836Z,1029.81
2019-05-14T04:17:50.163Z,1029.84
2019-05-14T04:18:50.356Z,1029.82
2019-05-14T04:19:49.525Z,1029.82
2019-05-14T04:20:50.074Z,1029.84
2019-05-14T04:21:49.060Z,1029.82
2019-05-14T04:22:50.036Z,1029.86
2019-05-14T04:23:50.749Z,1029.85
2019-05-14T04:24:49.587Z,1029.85
2019-05-14T04:25:49.841Z,1029.89
2019-05-14T04:27:01.787Z,1029.85
2019-05-14T04:27:49.381Z,1029.87
2019-05-14T04:28:49.834Z,1029.89
2019-05-14T04:29:49.965Z,1029.83
2019-05-14T04:30:49.319Z,1029.87
2019-05-14T04:31:50.309Z,1029.90
2019-05-14T04:32:50.443Z,1029.90
2019-05-14T04:33:50.018Z,1029.89
2019-05-14T04:34:49.872Z,1029.91
2019-05-14T04:35:49.110Z,1029.90
2019-05-14T04:36:50.201Z,1029.93
2019-05-14T04:37:49.666Z,1029.96
2019-05-14T04:38:51.445Z,1029.90
2019-05-14T04:39:50.350Z,1029.91
2019-05-14T04:40:49.372Z,1029.89
2019-05-14T04:41:49.809Z,1029.94
2019-05-14T04:42:50.043Z,1029.91
2019-05-14T04:43:50.004Z,1029.94
2019-05-14T04:44:50.004Z,1029.94
2019-05-14T04:45:49.747Z,1029.97
2019-05-14T04:46:49.367Z,1029.96
2019-05-14T04:47:49.753Z,1029.97
2019-05-14T04:48:50.808Z,1029.96
2019-05-14T04:49:50.215Z,1029.95
2019-05-14T04:50:49.701Z,1030.02
2019-05-14T04:51:50.301Z,1029.96
2019-05-14T04:52:49.430Z,1029.97
2019-05-14T04:53:49.923Z,1029.94
2019-05-14T04:54:49.979Z,1029.93
2019-05-14T04:55:49.465Z,1029.93
2019-05-14T04:56:49.739Z,1029.97
2019-05-14T04:57:49.804Z,1029.95
2019-05-14T04:58:49.677Z,1029.98
2019-05-14T04:59:49.410Z,1029.98
2019-05-14T05:00:49.976Z,1029.97
2019-05-14T05:01:49.366Z,1029.99
2019-05-14T05:02:49.764Z,1029.99
2019-05-14T05:03:50.448Z,1030.04
2019-05-14T05:04:50.807Z,1030.00
2019-05-14T05:05:49.710Z,1029.99
2019-05-14T05:06:49.657Z,1029.99
2019-05-14T05:07:49.252Z,1029.99
2019-05-14T05:08:49.743Z,1029.98
2019-05-14T05:09:49.876Z,1029.96
2019-05-14T05:10:49.406Z,1029.94
2019-05-14T05:11:49.796Z,1029.95
2019-05-14T05:12:49.284Z,1029.93
2019-05-14T05:13:48.805Z,1029.92
2019-05-14T05:14:49.331Z,1029.94
2019-05-14T05:15:48.656Z,1029.91
2019-05-14T05:16:48.983Z,1029.88
2019-05-14T05:17:51.700Z,1029.87
2019-05-14T05:18:49.124Z,1029.87
2019-05-14T05:19:51.340Z,1029.88
2019-05-14T05:20:50.553Z,1029.83
2019-05-14T05:21:48.091Z,1029.86
2019-05-14T05:22:48.606Z,1029.85
2019-05-14T05:23:49.047Z,1029.80
2019-05-14T05:24:48.444Z,1029.82
2019-05-14T05:25:48.919Z,1029.81
2019-05-14T05:26:48.594Z,1029.83
2019-05-14T05:27:48.730Z,1029.87
2019-05-14T05:29:01.865Z,1029.85
2019-05-14T05:29:48.555Z,1029.86
2019-05-14T05:30:48.916Z,1029.82
2019-05-14T05:31:48.777Z,1029.93
2019-05-14T05:32:49.216Z,1029.85
2019-05-14T05:33:49.004Z,1029.84
2019-05-14T05:34:48.329Z,1029.84
2019-05-14T05:35:48.686Z,1029.91
2019-05-14T05:36:48.496Z,1029.87
2019-05-14T05:37:48.862Z,1029.91
2019-05-14T05:38:48.970Z,1029.88
2019-05-14T05:39:48.875Z,1029.86
2019-05-14T05:40:48.595Z,1029.79
2019-05-14T05:41:49.017Z,1029.80
2019-05-14T05:42:48.838Z,1029.84
2019-05-14T05:43:48.427Z,1029.85
2019-05-14T05:44:48.345Z,1029.84
2019-05-14T05:45:48.579Z,1029.88
2019-05-14T05:46:49.171Z,1029.91
2019-05-14T05:47:55.292Z,1029.93
2019-05-14T05:48:48.157Z,1029.87
2019-05-14T05:49:48.585Z,1029.90
2019-05-14T05:50:48.457Z,1029.90
2019-05-14T05:51:48.381Z,1029.89
2019-05-14T05:52:49.151Z,1029.93
2019-05-14T05:53:48.372Z,1029.92
2019-05-14T05:54:48.793Z,1029.91
2019-05-14T05:55:48.469Z,1029.94
2019-05-14T05:56:48.187Z,1029.95
2019-05-14T05:57:46.439Z,1029.94
2019-05-14T05:58:48.573Z,1029.97
2019-05-14T05:59:48.546Z,1029.94
2019-05-14T06:00:46.402Z,1029.90
2019-05-14T06:01:47.671Z,1029.95
2019-05-14T06:02:48.837Z,1029.95
2019-05-14T06:03:46.366Z,1029.97
2019-05-14T06:04:48.044Z,1029.95
2019-05-14T06:05:49.088Z,1029.99
2019-05-14T06:06:48.259Z,1029.95
2019-05-14T06:07:48.261Z,1029.94
2019-05-14T06:08:48.868Z,1029.96
2019-05-14T06:09:48.322Z,1029.93
2019-05-14T06:10:48.790Z,1029.94
2019-05-14T06:11:48.549Z,1029.96
2019-05-14T06:12:48.926Z,1029.90
2019-05-14T06:13:48.382Z,1029.92
2019-05-14T06:14:48.542Z,1029.87
2019-05-14T06:15:49.521Z,1029.88
2019-05-14T06:16:48.844Z,1029.87
2019-05-14T06:17:46.208Z,1029.85
2019-05-14T06:18:48.329Z,1029.84
2019-05-14T06:19:48.446Z,1029.88
2019-05-14T06:20:46.176Z,1029.87
2019-05-14T06:21:48.725Z,1029.88
2019-05-14T06:22:46.180Z,1029.86
2019-05-14T06:23:48.759Z,1029.89
2019-05-14T06:24:48.347Z,1029.91
2019-05-14T06:25:48.899Z,1029.89
2019-05-14T06:26:46.107Z,1029.91
2019-05-14T06:27:48.439Z,1029.91
2019-05-14T06:28:48.405Z,1029.85
2019-05-14T06:29:46.075Z,1029.87
2019-05-14T06:30:48.242Z,1029.86
2019-05-14T06:31:46.051Z,1029.86
2019-05-14T06:32:48.607Z,1029.80
2019-05-14T06:33:48.418Z,1029.86
2019-05-14T06:34:48.641Z,1029.87
2019-05-14T06:35:48.399Z,1029.85
2019-05-14T06:36:48.364Z,1029.82
2019-05-14T06:37:45.983Z,1029.82
2019-05-14T06:38:45.972Z,1029.85
2019-05-14T06:39:48.282Z,1029.90
2019-05-14T06:40:48.775Z,1029.89
2019-05-14T06:41:45.939Z,1029.90
2019-05-14T06:42:48.414Z,1029.91
2019-05-14T06:43:48.414Z,1029.91
2019-05-14T06:44:45.905Z,1029.86
2019-05-14T06:45:45.926Z,1029.87
2019-05-14T06:46:48.434Z,1029.93
2019-05-14T06:47:45.871Z,1029.90
2019-05-14T06:48:48.357Z,1029.89
2019-05-14T06:49:45.850Z,1029.89
2019-05-14T06:50:45.837Z,1029.85
2019-05-14T06:51:48.723Z,1029.89
2019-05-14T06:52:45.850Z,1029.89
2019-05-14T06:53:45.805Z,1029.89
2019-05-14T06:54:45.792Z,1029.88
2019-05-14T06:55:48.241Z,1029.86
2019-05-14T06:56:45.773Z,1029.90
2019-05-14T06:57:47.905Z,1029.89
2019-05-14T06:58:45.778Z,1029.86
2019-05-14T06:59:47.976Z,1029.85
2019-05-14T07:00:45.726Z,1029.87
2019-05-14T07:01:45.714Z,1029.78
2019-05-14T07:02:45.706Z,1029.81
2019-05-14T07:03:45.691Z,1029.78
2019-05-14T07:04:48.214Z,1029.83
2019-05-14T07:05:45.669Z,1029.81
2019-05-14T07:06:48.266Z,1029.83
2019-05-14T07:07:45.650Z,1029.86
2019-05-14T07:08:48.133Z,1029.84
2019-05-14T07:09:45.627Z,1029.88
2019-05-14T07:10:45.641Z,1029.87
2019-05-14T07:11:45.601Z,1029.87
2019-05-14T07:12:45.591Z,1029.81
2019-05-14T07:13:45.583Z,1029.87
2019-05-14T07:14:47.990Z,1029.81
2019-05-14T07:15:45.557Z,1029.84
2019-05-14T07:16:48.304Z,1029.82
2019-05-14T07:17:45.533Z,1029.82
2019-05-14T07:18:50.606Z,1029.77
2019-05-14T07:19:48.752Z,1029.74
2019-05-14T07:20:45.501Z,1029.74
2019-05-14T07:21:45.489Z,1029.80
2019-05-14T07:22:48.163Z,1029.73
2019-05-14T07:23:45.466Z,1029.79
2019-05-14T07:24:45.455Z,1029.72
2019-05-14T07:25:45.447Z,1029.76
2019-05-14T07:26:45.441Z,1029.76
2019-05-14T07:27:45.423Z,1029.78
2019-05-14T07:28:45.426Z,1029.84
2019-05-14T07:29:45.402Z,1029.78
2019-05-14T07:30:45.388Z,1029.82
2019-05-14T07:31:45.377Z,1029.78
2019-05-14T07:32:45.366Z,1029.79
2019-05-14T07:33:45.355Z,1029.76
2019-05-14T07:34:45.377Z,1029.76
2019-05-14T07:35:45.331Z,1029.70
2019-05-14T07:36:45.323Z,1029.77
2019-05-14T07:37:45.309Z,1029.84
2019-05-14T07:38:45.299Z,1029.89
2019-05-14T07:39:45.287Z,1029.82
2019-05-14T07:40:45.308Z,1029.84
2019-05-14T07:41:45.280Z,1029.76
2019-05-14T07:42:45.254Z,1029.79
2019-05-14T07:43:45.246Z,1029.83
2019-05-14T07:44:45.229Z,1029.76
2019-05-14T07:45:45.222Z,1029.79
2019-05-14T07:46:45.244Z,1029.78
2019-05-14T07:47:45.196Z,1029.75
2019-05-14T07:48:45.186Z,1029.77
2019-05-14T07:49:45.175Z,1029.82
2019-05-14T07:50:48.106Z,1029.77
2019-05-14T07:51:48.147Z,1029.78
2019-05-14T07:52:45.798Z,1029.75
2019-05-14T07:53:45.131Z,1029.76
2019-05-14T07:54:45.120Z,1029.74
2019-05-14T07:55:45.117Z,1029.75
2019-05-14T07:56:45.097Z,1029.79
2019-05-14T07:57:45.115Z,1029.73
2019-05-14T07:58:45.073Z,1029.68
2019-05-14T07:59:45.062Z,1029.74
2019-05-14T08:00:45.052Z,1029.74
2019-05-14T08:01:45.041Z,1029.72
2019-05-14T08:02:45.028Z,1029.63
2019-05-14T08:03:45.053Z,1029.70
2019-05-14T08:04:45.005Z,1029.67
2019-05-14T08:05:45.002Z,1029.63
2019-05-14T08:06:44.983Z,1029.67
2019-05-14T08:07:44.974Z,1029.61
2019-05-14T08:08:44.962Z,1029.61
2019-05-14T08:09:44.983Z,1029.62
2019-05-14T08:10:44.941Z,1029.58
2019-05-14T08:11:44.927Z,1029.56
2019-05-14T08:12:44.915Z,1029.49
2019-05-14T08:13:44.906Z,1029.51
2019-05-14T08:14:57.895Z,1029.49
2019-05-14T08:15:45.903Z,1029.41
2019-05-14T08:16:44.870Z,1029.43
2019-05-14T08:17:44.861Z,1029.53
2019-05-14T08:18:44.848Z,1029.43
2019-05-14T08:19:44.836Z,1029.43
2019-05-14T08:20:44.825Z,1029.51
2019-05-14T08:21:44.844Z,1029.43
2019-05-14T08:22:44.803Z,1029.42
2019-05-14T08:23:44.791Z,1029.42
2019-05-14T08:24:44.781Z,1029.45
2019-05-14T08:25:44.771Z,1029.46
2019-05-14T08:26:44.758Z,1029.43
2019-05-14T08:27:44.783Z,1029.40
2019-05-14T08:28:44.735Z,1029.41
2019-05-14T08:29:44.725Z,1029.38
2019-05-14T08:30:44.716Z,1029.32
2019-05-14T08:31:44.702Z,1029.40
2019-05-14T08:32:44.691Z,1029.41
2019-05-14T08:33:44.707Z,1029.37
2019-05-14T08:34:44.668Z,1029.33
2019-05-14T08:35:44.657Z,1029.36
2019-05-14T08:36:44.646Z,1029.32
2019-05-14T08:37:44.635Z,1029.37
2019-05-14T08:38:45.528Z,1029.38
2019-05-14T08:39:44.636Z,1029.35
2019-05-14T08:40:44.602Z,1029.37
2019-05-14T08:41:44.590Z,1029.30
2019-05-14T08:42:45.281Z,1029.30
2019-05-14T08:43:44.568Z,1029.30
2019-05-14T08:44:48.016Z,1029.26
2019-05-14T08:45:45.659Z,1029.26
2019-05-14T08:46:45.259Z,1029.23
2019-05-14T08:47:44.525Z,1029.28
2019-05-14T08:48:44.512Z,1029.22
2019-05-14T08:49:46.641Z,1029.21
2019-05-14T08:50:45.490Z,1029.24
2019-05-14T08:51:44.502Z,1029.17
2019-05-14T08:52:44.466Z,1029.19
2019-05-14T08:53:44.455Z,1029.16
2019-05-14T08:54:44.443Z,1029.14
2019-05-14T08:55:44.433Z,1029.15
2019-05-14T08:56:44.421Z,1029.13
2019-05-14T08:57:44.513Z,1029.11
2019-05-14T08:58:44.398Z,1029.15
2019-05-14T08:59:44.395Z,1029.11
2019-05-14T09:00:44.376Z,1029.16
2019-05-14T09:01:58.679Z,1029.16
2019-05-14T09:02:45.388Z,1029.19
2019-05-14T09:03:44.345Z,1029.16
2019-05-14T09:04:44.338Z,1029.17
2019-05-14T09:05:44.321Z,1029.11
2019-05-14T09:06:44.309Z,1029.10
2019-05-14T09:07:44.297Z,1029.15
2019-05-14T09:08:44.305Z,1029.09
2019-05-14T09:09:44.275Z,1029.09
2019-05-14T09:10:44.266Z,1029.06
2019-05-14T09:11:46.060Z,1029.06
2019-05-14T09:12:44.242Z,1029.04
2019-05-14T09:13:44.231Z,1028.97
2019-05-14T09:14:44.249Z,1028.94
2019-05-14T09:15:44.209Z,1028.95
2019-05-14T09:16:47.743Z,1028.86
2019-05-14T09:17:45.185Z,1028.82
2019-05-14T09:18:44.175Z,1028.84
2019-05-14T09:19:57.760Z,1028.76
2019-05-14T09:20:48.817Z,1028.96
2019-05-14T09:21:44.142Z,1028.84
2019-05-14T09:22:44.129Z,1028.90
2019-05-14T09:23:44.117Z,1028.81
2019-05-14T09:24:44.117Z,1028.82
2019-05-14T09:25:48.458Z,1028.84
2019-05-14T09:26:44.093Z,1028.81
2019-05-14T09:27:44.073Z,1028.78
2019-05-14T09:28:44.061Z,1028.81
2019-05-14T09:29:44.051Z,1028.83
2019-05-14T09:30:44.040Z,1028.85
2019-05-14T09:31:44.028Z,1028.79
2019-05-14T09:32:44.026Z,1028.81
2019-05-14T09:33:44.015Z,1028.86
2019-05-14T09:34:43.994Z,1028.78
2019-05-14T09:35:43.998Z,1028.86
2019-05-14T09:36:43.971Z,1028.91
2019-05-14T09:37:43.961Z,1028.88
2019-05-14T09:38:44.010Z,1028.85
2019-05-14T09:39:43.938Z,1028.82
2019-05-14T09:40:43.935Z,1028.85
2019-05-14T09:41:43.915Z,1028.82
2019-05-14T09:42:43.907Z,1028.80
2019-05-14T09:43:43.895Z,1028.78
2019-05-14T09:44:43.890Z,1028.79
2019-05-14T09:45:43.871Z,1028.73
2019-05-14T09:46:43.859Z,1028.75
2019-05-14T09:47:47.513Z,1028.74
2019-05-14T09:48:44.835Z,1028.67
2019-05-14T09:49:43.826Z,1028.76
2019-05-14T09:50:43.823Z,1028.72
2019-05-14T09:51:43.803Z,1028.67
2019-05-14T09:52:43.796Z,1028.62
2019-05-14T09:53:43.781Z,1028.67
2019-05-14T09:54:44.223Z,1028.64
2019-05-14T09:55:43.758Z,1028.65
2019-05-14T09:56:43.757Z,1028.67
2019-05-14T09:57:43.735Z,1028.60
2019-05-14T09:58:43.725Z,1028.66
2019-05-14T09:59:43.714Z,1028.67
2019-05-14T10:00:43.702Z,1028.67
2019-05-14T10:01:43.693Z,1028.65
2019-05-14T10:02:43.728Z,1028.60
2019-05-14T10:03:43.672Z,1028.55
2019-05-14T10:04:43.660Z,1028.60
2019-05-14T10:05:43.650Z,1028.43
2019-05-14T10:06:43.635Z,1028.48
2019-05-14T10:07:43.624Z,1028.47
2019-05-14T10:08:43.621Z,1028.50
2019-05-14T10:09:43.600Z,1028.50
2019-05-14T10:10:43.591Z,1028.43
2019-05-14T10:11:43.582Z,1028.51
2019-05-14T10:12:52.822Z,1028.45
2019-05-14T10:13:44.564Z,1028.46
2019-05-14T10:14:43.549Z,1028.43
2019-05-14T10:15:43.533Z,1028.43
2019-05-14T10:16:43.524Z,1028.52
2019-05-14T10:17:43.511Z,1028.54
2019-05-14T10:18:43.500Z,1028.46
2019-05-14T10:19:43.500Z,1028.46
2019-05-14T10:20:45.986Z,1028.39
2019-05-14T10:21:44.466Z,1028.49
2019-05-14T10:22:43.457Z,1028.44
2019-05-14T10:23:43.443Z,1028.43
2019-05-14T10:24:43.431Z,1028.46
2019-05-14T10:25:43.430Z,1028.41
2019-05-14T10:26:43.418Z,1028.51
2019-05-14T10:27:43.398Z,1028.46
2019-05-14T10:28:43.632Z,1028.52
2019-05-14T10:29:43.383Z,1028.47
2019-05-14T10:30:43.366Z,1028.47
2019-05-14T10:31:43.377Z,1028.53
2019-05-14T10:32:43.382Z,1028.54
2019-05-14T10:33:43.333Z,1028.53
2019-05-14T10:34:43.322Z,1028.51
2019-05-14T10:35:43.309Z,1028.45
2019-05-14T10:36:43.298Z,1028.47
2019-05-14T10:37:43.296Z,1028.40
2019-05-14T10:38:43.277Z,1028.44
2019-05-14T10:39:43.265Z,1028.37
2019-05-14T10:40:43.253Z,1028.38
2019-05-14T10:41:43.242Z,1028.42
2019-05-14T10:42:43.232Z,1028.38
2019-05-14T10:43:43.229Z,1028.35
2019-05-14T10:44:43.208Z,1028.32
2019-05-14T10:45:43.195Z,1028.39
2019-05-14T10:46:43.185Z,1028.32
2019-05-14T10:47:43.180Z,1028.31
2019-05-14T10:48:43.162Z,1028.23
2019-05-14T10:49:43.181Z,1028.25
2019-05-14T10:50:56.405Z,1028.31
2019-05-14T10:51:44.127Z,1028.28
2019-05-14T10:52:43.119Z,1028.37
2019-05-14T10:53:43.106Z,1028.42
2019-05-14T10:54:55.020Z,1028.39
2019-05-14T10:55:44.114Z,1028.37
2019-05-14T10:56:43.080Z,1028.46
2019-05-14T10:57:43.061Z,1028.40
2019-05-14T10:58:43.052Z,1028.38
2019-05-14T10:59:43.040Z,1028.39
2019-05-14T11:00:43.028Z,1028.41
2019-05-14T11:01:43.056Z,1028.40
2019-05-14T11:02:43.006Z,1028.25
2019-05-14T11:03:42.994Z,1028.36
2019-05-14T11:04:42.987Z,1028.37
2019-05-14T11:05:42.972Z,1028.33
2019-05-14T11:06:42.961Z,1028.26
2019-05-14T11:07:42.986Z,1028.33
2019-05-14T11:08:42.944Z,1028.30
2019-05-14T11:09:42.927Z,1028.30
2019-05-14T11:10:42.918Z,1028.23
2019-05-14T11:11:42.903Z,1028.24
2019-05-14T11:12:42.893Z,1028.25
2019-05-14T11:13:42.913Z,1028.35
2019-05-14T11:14:42.890Z,1028.25
2019-05-14T11:15:42.859Z,1028.24
2019-05-14T11:16:42.849Z,1028.21
2019-05-14T11:17:42.839Z,1028.24
2019-05-14T11:18:42.827Z,1028.21
2019-05-14T11:19:42.854Z,1028.21
2019-05-14T11:20:42.804Z,1028.24
2019-05-14T11:21:42.793Z,1028.23
2019-05-14T11:22:42.784Z,1028.24
2019-05-14T11:23:42.769Z,1028.23
2019-05-14T11:24:42.763Z,1028.21
2019-05-14T11:25:42.756Z,1028.22
2019-05-14T11:26:42.739Z,1028.10
2019-05-14T11:27:42.726Z,1028.31
2019-05-14T11:28:42.713Z,1028.17
2019-05-14T11:29:42.701Z,1028.23
2019-05-14T11:30:42.690Z,1028.24
2019-05-14T11:31:42.687Z,1028.24
2019-05-14T11:32:42.668Z,1028.27
2019-05-14T11:33:42.670Z,1028.25
2019-05-14T11:34:42.647Z,1028.27
2019-05-14T11:35:42.634Z,1028.28
2019-05-14T11:36:42.623Z,1028.26
2019-05-14T11:37:42.620Z,1028.27
2019-05-14T11:38:42.601Z,1028.23
2019-05-14T11:39:42.589Z,1028.22
2019-05-14T11:40:42.577Z,1028.20
2019-05-14T11:41:42.566Z,1028.23
2019-05-14T11:42:42.558Z,1028.10
2019-05-14T11:43:42.575Z,1028.19
2019-05-14T11:44:42.534Z,1028.16
2019-05-14T11:45:42.523Z,1028.17
2019-05-14T11:46:51.434Z,1028.16
2019-05-14T11:47:43.498Z,1028.13
2019-05-14T11:48:42.487Z,1028.21
2019-05-14T11:49:42.488Z,1028.15
2019-05-14T11:50:42.466Z,1028.21
2019-05-14T11:52:11.298Z,1028.18
2019-05-14T11:52:43.442Z,1028.16
2019-05-14T11:53:42.432Z,1028.08
2019-05-14T11:54:42.421Z,1028.07
2019-05-14T11:55:42.418Z,1028.10
2019-05-14T11:56:42.398Z,1028.06
2019-05-14T11:57:42.391Z,1027.98
2019-05-14T11:58:42.375Z,1028.01
2019-05-14T11:59:42.366Z,1027.96
2019-05-14T12:00:42.352Z,1027.89
2019-05-14T12:01:42.553Z,1027.95
2019-05-14T12:02:42.330Z,1027.96
2019-05-14T12:03:42.319Z,1027.97
2019-05-14T12:04:42.308Z,1027.99
2019-05-14T12:05:42.298Z,1027.99